Tenterden, United Kingdom
Current Conditions -  °F | °C
As of 8:20 PM on Wednesday 26 Nov 2014 (Local Time) from EGKB Reporting Station
Moderate Fog Moderate Fog  
Wind Chill: 48°   Ceiling: Unl
Heat Index: 48°   Visibility: 0.25mi
Dew Point: 46°   Wind: 1mph
Humidity: 93%   Direction: 40°NE
Pressure: 29.77"   Gusts: NA
Location:  51.07°N, 0.69°E
Report Text: EGKB 262020Z 04001KT 0400 R21/0250 FG VV/// 09/08 Q1008
Loading
Personal Weather Stations






























Interactive Weather Map New forecast layout! Learn more

10-Day Weather Forecast

Advertisements
Track Severe Weather on mobile